Time;durP1;ratioP1;P1;durP2;ratioP2;P2;SDS_P1;SDS_P2;PMS_P1;PMS_P2;Temp;Humidity;BMP_temperature;BMP_pressure;BME280_temperature;BME280_humidity;BME280_pressure;Samples;Min_cycle;Max_cycle;Signal;HPM_P1;HPM_P2
2023/06/07 00:01:14;;;;;;;3.92;1.35;;;;;;;21.18;50.14;100933.75;4996628;28;20506;-46
2023/06/07 00:03:41;;;;;;;2.40;1.15;;;;;;;20.97;51.21;100955.53;4996715;28;20471;-45
2023/06/07 00:06:13;;;;;;;5.00;1.77;;;;;;;20.54;52.87;100963.13;4996837;28;20031;-47
2023/06/07 00:08:42;;;;;;;3.42;1.30;;;;;;;20.85;51.82;100970.50;4996757;28;20027;-48
2023/06/07 00:11:09;;;;;;;4.22;1.63;;;;;;;20.92;51.75;100979.19;4996621;28;20081;-45
2023/06/07 00:13:35;;;;;;;2.47;1.30;;;;;;;21.17;50.96;100970.25;4996286;28;20023;-45
2023/06/07 00:16:01;;;;;;;3.72;1.33;;;;;;;21.04;51.78;100963.41;4996431;28;20459;-47
2023/06/07 00:18:28;;;;;;;4.70;1.52;;;;;;;20.91;51.83;100970.22;4996390;28;20023;-45
2023/06/07 00:20:54;;;;;;;4.80;1.45;;;;;;;20.56;52.16;100969.13;4996283;28;20069;-48
2023/06/07 00:23:21;;;;;;;3.58;1.17;;;;;;;20.61;52.35;100952.00;4996622;28;20058;-54
2023/06/07 00:25:48;;;;;;;5.03;1.50;;;;;;;20.35;52.67;100942.94;4996425;28;20483;-55
2023/06/07 00:28:14;;;;;;;3.53;1.10;;;;;;;20.50;53.52;100939.47;4996556;28;20398;-53
2023/06/07 00:30:40;;;;;;;3.92;1.30;;;;;;;20.43;53.61;100942.44;4996455;28;20022;-55
2023/06/07 00:33:06;;;;;;;1.55;0.98;;;;;;;20.23;54.35;100956.78;4996110;28;20022;-56
2023/06/07 00:35:33;;;;;;;2.90;1.23;;;;;;;19.96;53.92;100973.25;4996288;28;20037;-48
2023/06/07 00:37:59;;;;;;;5.18;1.42;;;;;;;19.85;55.07;100976.19;4995883;28;20054;-56
2023/06/07 00:40:25;;;;;;;3.80;1.52;;;;;;;19.75;55.40;100969.59;4995963;28;20023;-56
2023/06/07 00:42:51;;;;;;;3.97;1.83;;;;;;;19.68;55.83;100970.94;4996245;28;20058;-49
2023/06/07 00:45:18;;;;;;;3.65;1.52;;;;;;;19.45;56.29;100958.56;4996246;28;20034;-50
2023/06/07 00:47:44;;;;;;;4.28;1.48;;;;;;;19.28;56.99;100955.19;4995667;28;20027;-50
2023/06/07 00:50:11;;;;;;;4.68;1.20;;;;;;;19.28;57.18;100955.19;4995777;28;20050;-50
2023/06/07 00:52:38;;;;;;;3.80;1.58;;;;;;;19.14;56.59;100943.94;4995640;28;20116;-53
2023/06/07 00:55:05;;;;;;;3.55;1.23;;;;;;;19.07;57.86;100955.03;4995782;28;20104;-51
2023/06/07 00:57:33;;;;;;;2.15;1.55;;;;;;;18.96;58.36;100950.59;4995887;28;20509;-46
2023/06/07 01:00:01;;;;;;;6.63;1.70;;;;;;;18.88;58.47;100956.53;4995560;28;20030;-45
2023/06/07 01:02:29;;;;;;;3.50;1.45;;;;;;;18.81;58.96;100955.88;4995388;28;20387;-49
2023/06/07 01:04:57;;;;;;;2.83;1.50;;;;;;;18.62;58.79;100952.72;4995250;28;20026;-49
2023/06/07 01:07:24;;;;;;;4.80;1.70;;;;;;;18.54;59.80;100950.44;4994053;28;20427;-47
2023/06/07 01:09:55;;;;;;;5.93;1.70;;;;;;;18.25;60.91;100960.72;4995401;28;20050;-44
2023/06/07 01:12:24;;;;;;;4.78;1.52;;;;;;;18.28;60.40;100960.22;4995251;28;20467;-44
2023/06/07 01:14:51;;;;;;;3.05;1.40;;;;;;;18.13;61.73;100969.00;4995271;28;20032;-44
2023/06/07 01:17:24;;;;;;;3.67;1.65;;;;;;;18.05;61.71;100948.59;4995264;28;20023;-44
2023/06/07 01:19:53;;;;;;;4.38;1.60;;;;;;;18.04;61.98;100962.38;4995402;28;20019;-44
2023/06/07 01:22:29;;;;;;;4.75;1.75;;;;;;;18.22;61.43;100950.41;4995148;28;20126;-44
2023/06/07 01:24:57;;;;;;;2.92;1.35;;;;;;;18.32;60.81;100966.75;4995691;28;20057;-44
2023/06/07 01:27:27;;;;;;;3.92;1.52;;;;;;;18.22;61.32;100967.47;4995022;28;20030;-45
2023/06/07 01:29:58;;;;;;;3.67;1.73;;;;;;;18.21;61.50;100973.94;4995245;28;20479;-44
2023/06/07 01:32:25;;;;;;;5.13;1.85;;;;;;;18.16;61.57;100961.19;4995034;28;20022;-45
2023/06/07 01:34:55;;;;;;;3.28;1.50;;;;;;;18.13;61.26;100945.41;4994931;28;20042;-47
2023/06/07 01:37:23;;;;;;;4.85;1.75;;;;;;;18.08;61.71;100941.84;4994774;28;20031;-45
2023/06/07 01:39:52;;;;;;;4.88;1.33;;;;;;;18.05;61.30;100942.38;4994920;28;20486;-44
2023/06/07 01:42:19;;;;;;;5.10;1.75;;;;;;;18.10;62.06;100926.13;4994843;28;20475;-44
2023/06/07 01:44:47;;;;;;;2.85;1.20;;;;;;;18.03;61.76;100920.91;4994875;28;20105;-43
2023/06/07 01:47:14;;;;;;;6.93;1.75;;;;;;;17.92;62.29;100919.16;4994718;28;20423;-44
2023/06/07 01:49:42;;;;;;;4.68;1.92;;;;;;;17.71;62.92;100922.66;4994618;28;20032;-44
2023/06/07 01:52:08;;;;;;;2.25;1.27;;;;;;;17.62;63.16;100915.00;4994582;28;20053;-43
2023/06/07 01:54:35;;;;;;;7.55;1.75;;;;;;;17.71;63.28;100917.25;4994612;28;20378;-44
2023/06/07 01:57:11;;;;;;;4.75;1.60;;;;;;;17.64;63.34;100933.69;4994615;28;20026;-45
2023/06/07 02:00:09;;;;;;;2.88;1.08;;;;;;;17.83;63.00;100958.59;4994463;28;20537;-45
2023/06/07 02:02:45;;;;;;;3.67;1.42;;;;;;;18.07;62.79;100956.47;4982846;28;20434;-43
2023/06/07 02:05:20;;;;;;;3.88;1.42;;;;;;;18.32;62.31;100964.88;4994449;28;20022;-44
2023/06/07 02:07:53;;;;;;;6.45;1.63;;;;;;;18.35;61.64;100985.22;4994652;28;20037;-43
2023/06/07 02:10:28;;;;;;;5.32;1.60;;;;;;;18.10;62.02;100994.72;4994278;28;20052;-45
2023/06/07 02:12:55;;;;;;;2.92;1.08;;;;;;;18.26;61.86;100978.59;4994316;28;20471;-44
2023/06/07 02:15:22;;;;;;;2.38;1.23;;;;;;;18.27;61.22;100972.16;4994179;28;20030;-44
2023/06/07 02:17:58;;;;;;;6.43;1.23;;;;;;;18.08;61.82;100980.56;4994044;28;20096;-44
2023/06/07 02:20:29;;;;;;;4.28;1.30;;;;;;;17.88;62.77;100999.28;4994485;28;20517;-44
2023/06/07 02:22:56;;;;;;;2.78;1.33;;;;;;;17.86;62.45;100998.72;4994151;28;20471;-44
2023/06/07 02:25:24;;;;;;;2.97;1.17;;;;;;;17.63;63.17;100997.81;4994263;28;20513;-45
2023/06/07 02:27:50;;;;;;;2.80;1.10;;;;;;;17.73;63.36;101001.78;4993895;28;20038;-44
2023/06/07 02:30:17;;;;;;;3.20;1.55;;;;;;;17.54;63.58;100993.06;4993998;28;20038;-45
2023/06/07 02:32:49;;;;;;;3.15;1.20;;;;;;;17.53;64.22;101013.91;4993903;28;20072;-44
2023/06/07 02:35:17;;;;;;;3.25;1.42;;;;;;;17.58;64.15;101038.34;4993978;28;20027;-44
2023/06/07 02:37:44;;;;;;;2.88;1.00;;;;;;;17.56;63.76;101018.03;4993788;28;20133;-44
2023/06/07 02:40:10;;;;;;;2.67;1.20;;;;;;;17.40;64.04;101019.66;4993934;28;20030;-44
2023/06/07 02:42:37;;;;;;;3.38;1.33;;;;;;;17.39;64.63;101026.97;4994703;28;20049;-44
2023/06/07 02:45:05;;;;;;;3.45;1.60;;;;;;;17.39;64.63;101023.44;4993840;28;20030;-45
2023/06/07 02:47:31;;;;;;;2.33;1.30;;;;;;;17.43;64.80;101027.28;4993709;28;20027;-45
2023/06/07 02:49:58;;;;;;;5.20;1.80;;;;;;;17.25;65.26;101022.13;4993824;28;20031;-44
2023/06/07 02:52:25;;;;;;;3.25;1.60;;;;;;;17.03;66.63;101028.25;4993742;28;20427;-45
2023/06/07 02:54:51;;;;;;;6.03;1.80;;;;;;;16.94;66.87;101027.03;4993827;28;20022;-44
2023/06/07 02:57:17;;;;;;;5.20;1.50;;;;;;;16.98;67.13;101025.47;4994062;28;20424;-46
2023/06/07 02:59:44;;;;;;;6.18;2.20;;;;;;;16.70;68.17;101038.97;4993678;28;20056;-45
2023/06/07 03:02:11;;;;;;;3.80;1.90;;;;;;;16.69;68.10;101048.16;4994057;28;20026;-44
2023/06/07 03:04:40;;;;;;;10.60;2.55;;;;;;;16.65;68.48;101053.22;4994902;28;20053;-47
2023/06/07 03:07:06;;;;;;;4.93;1.90;;;;;;;16.73;68.32;101050.16;4994521;28;20479;-49
2023/06/07 03:09:33;;;;;;;7.82;2.03;;;;;;;16.55;68.54;101036.81;4993959;28;20026;-45
2023/06/07 03:11:59;;;;;;;6.03;1.65;;;;;;;16.33;69.56;101040.16;4993910;28;20102;-45
2023/06/07 03:14:25;;;;;;;4.32;1.73;;;;;;;16.10;70.36;101038.34;4993514;28;20022;-45
2023/06/07 03:16:52;;;;;;;6.53;1.90;;;;;;;16.01;70.98;101050.56;4993744;28;20072;-48
2023/06/07 03:19:19;;;;;;;6.00;1.90;;;;;;;16.05;70.91;101053.63;4993526;28;20057;-45
2023/06/07 03:21:45;;;;;;;4.10;1.45;;;;;;;16.09;70.61;101060.16;4993746;28;20027;-45
2023/06/07 03:24:12;;;;;;;4.50;1.80;;;;;;;15.97;71.57;101062.88;4993431;28;20022;-45
2023/06/07 03:26:39;;;;;;;6.55;2.08;;;;;;;16.12;70.95;101056.19;4993685;28;20069;-45
2023/06/07 03:29:06;;;;;;;7.43;1.88;;;;;;;16.21;70.51;101047.50;4993340;28;20069;-45
2023/06/07 03:31:33;;;;;;;5.68;1.98;;;;;;;16.16;70.83;101046.53;4996618;28;20037;-46
2023/06/07 03:33:59;;;;;;;5.13;1.50;;;;;;;16.17;70.86;101051.72;4997391;28;20053;-44
2023/06/07 03:36:35;;;;;;;5.43;2.05;;;;;;;16.00;71.77;101054.31;4997222;28;20018;-45
2023/06/07 03:39:02;;;;;;;4.75;1.55;;;;;;;16.08;71.52;101051.25;4996963;28;20125;-45
2023/06/07 03:41:28;;;;;;;8.48;1.73;;;;;;;16.06;71.39;101050.69;4997088;28;20111;-45
2023/06/07 03:43:54;;;;;;;5.53;1.70;;;;;;;16.04;71.50;101058.16;4997123;28;20024;-47
2023/06/07 03:46:21;;;;;;;8.20;2.08;;;;;;;16.06;71.91;101049.84;4997143;28;20026;-49
2023/06/07 03:48:47;;;;;;;5.10;1.60;;;;;;;16.13;71.17;101045.16;4996956;28;20053;-46
2023/06/07 03:51:13;;;;;;;3.88;1.60;;;;;;;16.15;71.41;101051.13;4996939;28;20038;-47
2023/06/07 03:53:42;;;;;;;3.55;1.60;;;;;;;16.01;72.27;101047.88;4996828;28;20109;-46
2023/06/07 03:56:08;;;;;;;3.80;1.48;;;;;;;16.06;71.72;101044.47;4996812;28;20387;-49
2023/06/07 03:58:35;;;;;;;5.57;1.65;;;;;;;16.03;72.06;101043.03;4996886;28;20026;-45
2023/06/07 04:01:02;;;;;;;3.20;1.50;;;;;;;15.83;73.25;101058.81;4996736;28;20451;-47
2023/06/07 04:03:30;;;;;;;2.83;1.40;;;;;;;15.76;73.63;101058.06;4996675;28;20105;-47
2023/06/07 04:05:57;;;;;;;4.25;1.50;;;;;;;15.79;73.38;101052.22;4996768;28;20030;-48
2023/06/07 04:08:23;;;;;;;3.55;1.88;;;;;;;15.96;72.92;101053.16;4996628;28;20301;-47
2023/06/07 04:10:50;;;;;;;4.88;1.77;;;;;;;15.95;73.10;101062.31;4996376;28;20030;-46
2023/06/07 04:13:16;;;;;;;6.25;1.80;;;;;;;16.08;72.37;101059.34;4996632;28;20113;-46
2023/06/07 04:15:43;;;;;;;5.38;1.83;;;;;;;15.89;73.07;101055.16;4996486;28;20080;-47
2023/06/07 04:18:09;;;;;;;3.15;1.40;;;;;;;15.97;72.84;101049.38;4996378;28;20473;-46
2023/06/07 04:20:35;;;;;;;4.82;1.80;;;;;;;15.97;72.70;101043.97;5011506;28;20522;-48
2023/06/07 04:23:02;;;;;;;4.68;1.50;;;;;;;15.90;72.87;101043.28;4996424;28;20069;-46
2023/06/07 04:25:32;;;;;;;4.15;1.77;;;;;;;15.88;73.22;101050.81;4996298;28;20038;-45
2023/06/07 04:28:01;;;;;;;3.85;1.55;;;;;;;15.94;73.16;101052.56;4996536;28;20029;-46
2023/06/07 04:30:34;;;;;;;4.15;1.55;;;;;;;15.86;73.28;101046.69;4996242;28;20070;-45
2023/06/07 04:33:09;;;;;;;4.38;1.70;;;;;;;15.89;73.69;101046.25;4996073;28;20023;-45
2023/06/07 04:35:44;;;;;;;;;;;;;;;15.73;73.98;101045.88;4996544;28;20034;-45
2023/06/07 04:38:15;;;;;;;5.30;1.60;;;;;;;15.79;73.32;101050.34;4995891;28;20274;-44
2023/06/07 04:40:49;;;;;;;4.07;1.52;;;;;;;15.76;73.38;101053.50;4995963;28;20030;-45
2023/06/07 04:43:18;;;;;;;4.70;1.60;;;;;;;15.66;74.01;101053.28;4996451;28;20109;-45
2023/06/07 04:45:54;;;;;;;3.92;1.27;;;;;;;15.66;73.88;101063.25;4996025;28;20164;-44
2023/06/07 04:48:25;;;;;;;4.40;1.48;;;;;;;15.46;74.80;101061.69;4996316;28;20018;-47
2023/06/07 04:50:54;;;;;;;3.45;1.70;;;;;;;15.53;75.03;101067.78;4995821;28;20041;-44
2023/06/07 04:53:21;;;;;;;2.90;1.50;;;;;;;15.58;74.40;101065.19;4996081;28;20498;-45
2023/06/07 04:55:48;;;;;;;3.97;1.58;;;;;;;15.47;75.22;101057.09;4995776;28;20390;-48
2023/06/07 04:58:17;;;;;;;5.50;1.70;;;;;;;15.37;75.64;101067.63;4995740;28;20027;-44
2023/06/07 05:00:44;;;;;;;6.30;1.83;;;;;;;15.32;76.02;101074.56;4995595;28;20479;-44
2023/06/07 05:03:13;;;;;;;7.35;1.85;;;;;;;15.34;76.24;101085.13;4995570;28;20045;-45
2023/06/07 05:05:42;;;;;;;6.28;2.15;;;;;;;15.43;75.70;101086.41;4995506;28;20037;-44
2023/06/07 05:08:09;;;;;;;3.80;1.70;;;;;;;15.39;75.65;101071.75;4995383;28;20045;-44
2023/06/07 05:10:36;;;;;;;6.50;1.83;;;;;;;15.29;76.07;101068.81;4995531;28;20562;-44
2023/06/07 05:13:02;;;;;;;2.75;1.45;;;;;;;15.21;76.46;101071.81;4995626;28;20031;-43
2023/06/07 05:15:28;;;;;;;4.07;1.63;;;;;;;15.22;76.71;101084.28;4995222;28;20109;-44
2023/06/07 05:17:55;;;;;;;3.47;1.40;;;;;;;15.30;76.89;101084.75;4995386;28;20045;-44
2023/06/07 05:20:24;;;;;;;3.47;1.42;;;;;;;15.36;76.23;101088.41;4995297;28;20029;-44
2023/06/07 05:22:51;;;;;;;3.75;1.40;;;;;;;15.54;75.64;101091.00;4995161;28;20037;-45
2023/06/07 05:25:17;;;;;;;3.70;1.63;;;;;;;15.46;75.79;101095.94;4995459;28;20387;-44
2023/06/07 05:27:43;;;;;;;4.95;1.55;;;;;;;15.32;75.93;101098.00;4995069;28;20072;-46
2023/06/07 05:30:10;;;;;;;7.00;1.75;;;;;;;15.49;75.73;101088.19;4995089;28;20026;-44
2023/06/07 05:32:37;;;;;;;4.50;1.63;;;;;;;15.36;75.83;101088.41;4995040;28;20069;-47
2023/06/07 05:35:04;;;;;;;3.90;1.83;;;;;;;15.18;76.51;101101.97;4995141;28;20084;-47
2023/06/07 05:37:31;;;;;;;5.40;1.38;;;;;;;15.24;76.97;101111.81;4996161;28;20030;-45
2023/06/07 05:39:57;;;;;;;4.88;1.70;;;;;;;15.25;76.39;101118.84;4995687;28;20113;-48
2023/06/07 05:42:24;;;;;;;4.10;1.65;;;;;;;15.27;76.74;101122.97;4995084;28;20034;-46
2023/06/07 05:44:50;;;;;;;3.17;1.50;;;;;;;15.39;76.13;101127.59;4994757;28;20487;-48
2023/06/07 05:47:20;;;;;;;4.32;1.40;;;;;;;15.45;76.00;101124.78;4994854;28;20034;-47
2023/06/07 05:49:47;;;;;;;4.20;1.52;;;;;;;15.59;75.66;101122.69;4994941;28;20031;-48
2023/06/07 05:52:14;;;;;;;6.88;1.55;;;;;;;15.48;76.00;101131.56;4994635;28;20034;-48
2023/06/07 05:54:47;;;;;;;4.15;1.20;;;;;;;15.59;75.10;101123.50;4994430;28;20122;-48
2023/06/07 05:57:14;;;;;;;4.22;1.40;;;;;;;15.63;75.29;101137.38;4994862;28;20526;-44
2023/06/07 05:59:40;;;;;;;4.70;1.60;;;;;;;15.68;74.80;101137.53;4994670;28;20030;-45
2023/06/07 06:02:07;;;;;;;5.13;1.48;;;;;;;15.58;75.26;101143.44;4994530;28;20081;-47
2023/06/07 06:04:33;;;;;;;2.95;1.15;;;;;;;15.58;75.09;101140.75;4995001;28;20035;-47
2023/06/07 06:07:03;;;;;;;2.78;1.55;;;;;;;15.57;75.18;101144.50;4994415;28;20028;-44
2023/06/07 06:09:30;;;;;;;4.03;1.38;;;;;;;15.67;75.00;101124.28;4994592;28;20403;-45
2023/06/07 06:11:56;;;;;;;2.97;1.30;;;;;;;15.70;75.27;101113.00;4994402;28;20046;-44
2023/06/07 06:14:25;;;;;;;4.38;1.45;;;;;;;15.77;74.39;101109.16;4994276;28;20022;-47
2023/06/07 06:16:51;;;;;;;5.50;1.67;;;;;;;15.51;75.46;101102.28;5009308;28;20154;-48
2023/06/07 06:19:17;;;;;;;4.43;1.48;;;;;;;15.69;74.54;101114.06;4994298;28;20037;-46
2023/06/07 06:21:44;;;;;;;3.97;1.23;;;;;;;15.59;75.13;101120.81;4994389;28;20077;-45
2023/06/07 06:24:10;;;;;;;4.22;1.55;;;;;;;15.59;75.08;101120.81;5009203;28;20036;-46
2023/06/07 06:26:36;;;;;;;3.28;1.20;;;;;;;15.49;75.78;101135.91;5009252;28;20022;-46
2023/06/07 06:29:02;;;;;;;3.40;1.40;;;;;;;15.44;76.04;101143.91;4993995;28;20061;-46
2023/06/07 06:31:29;;;;;;;3.63;1.33;;;;;;;15.48;75.58;101136.97;4994392;28;20033;-48
2023/06/07 06:33:55;;;;;;;4.88;1.40;;;;;;;15.52;75.68;101141.69;4994066;28;20101;-45
2023/06/07 06:36:21;;;;;;;4.85;1.70;;;;;;;15.53;75.51;101129.81;4993993;28;20109;-45
2023/06/07 06:38:47;;;;;;;2.40;1.40;;;;;;;15.67;74.85;101133.19;4993801;28;20499;-45
2023/06/07 06:41:14;;;;;;;4.43;1.30;;;;;;;15.64;74.91;101125.53;4993679;28;20026;-47
2023/06/07 06:43:40;;;;;;;5.47;1.50;;;;;;;15.62;74.88;101118.72;4993927;28;20052;-46
2023/06/07 06:46:06;;;;;;;2.47;1.00;;;;;;;15.65;74.63;101118.25;4993884;28;20042;-45
2023/06/07 06:48:32;;;;;;;2.58;1.15;;;;;;;15.73;74.14;101123.34;4994105;28;20030;-48
2023/06/07 06:50:58;;;;;;;3.10;1.30;;;;;;;15.73;74.24;101120.63;4993723;28;20018;-46
2023/06/07 06:53:25;;;;;;;2.95;1.10;;;;;;;15.67;74.30;101118.88;4993774;28;20038;-45
2023/06/07 06:55:51;;;;;;;2.88;1.33;;;;;;;15.80;73.70;101115.94;4993652;28;20033;-48
2023/06/07 06:58:17;;;;;;;2.67;0.90;;;;;;;15.79;74.08;101119.69;4993815;28;20048;-47
2023/06/07 07:00:44;;;;;;;2.60;0.90;;;;;;;15.79;73.63;101115.13;4993693;28;20030;-46
2023/06/07 07:03:10;;;;;;;2.10;1.00;;;;;;;15.64;74.51;101106.66;4993616;28;20026;-44
2023/06/07 07:05:36;;;;;;;5.28;1.45;;;;;;;15.73;73.92;101110.66;4992671;28;20062;-46
2023/06/07 07:08:03;;;;;;;2.25;1.00;;;;;;;15.79;73.87;101115.13;4993464;28;20034;-48
2023/06/07 07:10:29;;;;;;;3.47;1.05;;;;;;;15.70;74.42;101111.09;4993669;28;20522;-48
2023/06/07 07:12:56;;;;;;;3.72;1.38;;;;;;;15.85;73.92;101110.66;4993437;28;20121;-43
2023/06/07 07:15:22;;;;;;;2.28;1.13;;;;;;;15.77;73.72;101108.31;4993486;28;20033;-46
2023/06/07 07:17:49;;;;;;;5.13;1.42;;;;;;;15.65;74.61;101099.38;4993593;28;20025;-45
2023/06/07 07:20:17;;;;;;;1.95;0.82;;;;;;;15.73;73.62;101096.34;4993514;28;20471;-44
2023/06/07 07:22:46;;;;;;;2.05;1.00;;;;;;;15.71;73.42;101090.34;4993454;28;20113;-44
2023/06/07 07:25:14;;;;;;;3.47;1.27;;;;;;;15.73;73.10;101085.56;4993301;28;20066;-44
2023/06/07 07:27:40;;;;;;;2.80;0.82;;;;;;;15.67;73.40;101092.72;4993461;28;20086;-46
2023/06/07 07:30:07;;;;;;;2.08;1.20;;;;;;;15.72;73.37;101084.72;4993213;28;20030;-47
2023/06/07 07:32:33;;;;;;;2.97;1.10;;;;;;;15.75;73.02;101080.72;4993373;28;20121;-46
2023/06/07 07:34:59;;;;;;;2.63;1.00;;;;;;;15.71;73.31;101083.09;4993282;28;20026;-45
2023/06/07 07:37:28;;;;;;;2.20;0.90;;;;;;;15.76;73.00;101082.38;4993233;28;20100;-45
2023/06/07 07:39:55;;;;;;;1.80;0.90;;;;;;;15.66;73.45;101082.16;4993027;28;20050;-45
2023/06/07 07:42:21;;;;;;;2.03;0.90;;;;;;;15.65;73.47;101080.47;4993309;28;20130;-47
2023/06/07 07:44:47;;;;;;;3.42;1.10;;;;;;;15.75;73.49;101092.34;4993271;28;20379;-43
2023/06/07 07:47:14;;;;;;;3.20;1.20;;;;;;;15.67;73.58;101079.22;4993117;28;20034;-45
2023/06/07 07:49:40;;;;;;;2.75;0.85;;;;;;;15.64;73.92;101081.53;4992998;28;20093;-43
2023/06/07 07:52:06;;;;;;;3.35;0.82;;;;;;;15.46;74.12;101077.88;4993136;28;20030;-44
2023/06/07 07:54:33;;;;;;;2.33;0.90;;;;;;;15.39;74.35;101082.56;4994083;28;20026;-44
2023/06/07 07:57:00;;;;;;;2.08;0.82;;;;;;;15.59;72.93;101083.03;4993787;28;20363;-44
2023/06/07 07:59:26;;;;;;;1.67;0.80;;;;;;;15.28;73.84;101080.66;4992923;28;20554;-44
2023/06/07 08:01:52;;;;;;;4.35;0.90;;;;;;;15.26;74.22;101078.16;4992978;28;20037;-45
2023/06/07 08:04:18;;;;;;;1.80;0.82;;;;;;;15.25;74.07;101078.41;4992744;28;20113;-45
2023/06/07 08:06:45;;;;;;;4.43;0.70;;;;;;;15.25;74.15;101073.00;4993108;28;20135;-44
2023/06/07 08:09:11;;;;;;;0.98;0.77;;;;;;;15.12;74.92;101081.31;4992809;28;20506;-46
2023/06/07 08:11:38;;;;;;;2.85;0.80;;;;;;;15.18;74.34;101080.38;4992915;28;20062;-44
2023/06/07 08:14:04;;;;;;;3.38;0.98;;;;;;;15.24;74.37;101074.06;4993051;28;20033;-43
2023/06/07 08:16:30;;;;;;;1.05;0.75;;;;;;;15.12;74.52;101073.22;4994179;28;20534;-44
2023/06/07 08:18:58;;;;;;;2.95;0.65;;;;;;;15.11;74.77;101068.88;4996707;28;20049;-44
2023/06/07 08:21:27;;;;;;;7.38;1.05;;;;;;;15.05;74.87;101076.03;4996389;28;20030;-44
2023/06/07 08:23:56;;;;;;;1.83;0.88;;;;;;;15.12;74.86;101073.22;4996522;28;20023;-43
2023/06/07 08:26:23;;;;;;;2.30;0.90;;;;;;;15.04;75.17;101075.16;4996223;28;20022;-43
2023/06/07 08:28:49;;;;;;;1.30;0.73;;;;;;;14.94;75.62;101077.63;4996265;28;20052;-44
2023/06/07 08:31:17;;;;;;;3.72;0.90;;;;;;;14.89;75.94;101068.59;4996121;28;20116;-44
2023/06/07 08:33:44;;;;;;;2.10;0.90;;;;;;;14.90;76.15;101067.53;4996006;28;20022;-44
2023/06/07 08:36:10;;;;;;;2.22;0.90;;;;;;;14.78;76.58;101071.00;4995897;28;20118;-44
2023/06/07 08:38:41;;;;;;;4.10;0.63;;;;;;;14.78;76.50;101071.00;4995947;28;20074;-43
2023/06/07 08:41:08;;;;;;;1.20;0.52;;;;;;;15.00;75.34;101068.63;4996249;28;20034;-47
2023/06/07 08:43:36;;;;;;;2.55;0.70;;;;;;;14.76;76.38;101069.56;4995798;28;20097;-44
2023/06/07 08:46:05;;;;;;;2.58;0.50;;;;;;;14.86;75.85;101072.53;4996108;28;20029;-45
2023/06/07 08:48:37;;;;;;;3.13;0.60;;;;;;;14.93;75.64;101075.97;4996214;28;20026;-43
2023/06/07 08:51:07;;;;;;;2.10;0.70;;;;;;;14.83;75.98;101061.41;4995877;28;20053;-43
2023/06/07 08:53:54;;;;;;;3.15;0.65;;;;;;;14.87;75.64;101068.78;4995786;28;20026;-44
2023/06/07 08:56:24;;;;;;;2.25;0.77;;;;;;;14.84;75.67;101066.56;4995671;28;20034;-43
2023/06/07 08:58:51;;;;;;;2.67;0.90;;;;;;;14.69;76.30;101071.53;4995599;28;20026;-43
2023/06/07 09:01:20;;;;;;;1.65;0.57;;;;;;;14.72;76.30;101066.53;4995596;28;20026;-42
2023/06/07 09:03:53;;;;;;;1.67;0.90;;;;;;;14.65;76.43;101062.25;4995609;28;20113;-44
2023/06/07 09:06:21;;;;;;;3.65;0.65;;;;;;;14.67;76.18;101062.88;4996390;28;20029;-43
2023/06/07 09:08:47;;;;;;;3.22;1.00;;;;;;;14.59;76.69;101065.84;4995585;28;20379;-42
2023/06/07 09:11:15;;;;;;;3.10;0.73;;;;;;;14.60;76.75;101064.81;4995423;28;20019;-42
2023/06/07 09:13:41;;;;;;;1.83;0.80;;;;;;;14.54;77.01;101058.44;4995350;28;20089;-43
2023/06/07 09:16:11;;;;;;;1.67;0.70;;;;;;;14.64;76.66;101063.31;4995343;28;20030;-42
2023/06/07 09:18:54;;;;;;;2.05;0.80;;;;;;;14.56;77.29;101058.25;4995311;28;20033;-44
2023/06/07 09:21:26;;;;;;;3.05;0.90;;;;;;;14.58;76.81;101061.53;4995674;28;20110;-44
2023/06/07 09:23:54;;;;;;;1.55;0.70;;;;;;;14.53;77.24;101067.59;4995471;28;20053;-47
2023/06/07 09:26:25;;;;;;;1.27;0.70;;;;;;;14.58;77.01;101066.91;4995197;28;20077;-43
2023/06/07 09:28:52;;;;;;;2.38;0.85;;;;;;;14.49;77.28;101067.25;4994245;28;20482;-44
2023/06/07 09:31:33;;;;;;;1.75;0.80;;;;;;;14.43;78.01;101073.47;4994893;28;20109;-47
2023/06/07 09:34:17;;;;;;;1.67;0.73;;;;;;;14.48;77.76;101076.34;4994947;28;20408;-46
2023/06/07 09:36:52;;;;;;;3.67;1.02;;;;;;;14.56;77.65;101069.84;4995061;28;20030;-44
2023/06/07 09:39:29;;;;;;;1.92;0.90;;;;;;;14.41;78.26;101070.19;4994687;28;20057;-43
2023/06/07 09:41:57;;;;;;;2.22;0.90;;;;;;;14.31;78.91;101071.75;4994777;28;20030;-47
2023/06/07 09:44:25;;;;;;;2.03;0.90;;;;;;;14.44;77.98;101080.53;4994749;28;20033;-44
2023/06/07 09:46:51;;;;;;;2.85;1.00;;;;;;;14.46;78.36;101078.41;4994829;28;20380;-43
2023/06/07 09:49:34;;;;;;;3.90;1.17;;;;;;;14.48;78.13;101073.66;4994698;28;20455;-44
2023/06/07 09:52:04;;;;;;;2.72;0.90;;;;;;;14.39;78.52;101069.59;4994902;28;20034;-43
2023/06/07 09:54:41;;;;;;;2.05;0.82;;;;;;;14.31;78.45;101072.59;4994417;28;20526;-43
2023/06/07 09:57:27;;;;;;;4.63;1.15;;;;;;;14.35;78.34;101070.28;4994560;28;20023;-44
2023/06/07 10:00:14;;;;;;;3.35;0.90;;;;;;;14.20;78.66;101066.06;4994563;28;20463;-43
2023/06/07 10:02:46;;;;;;;3.33;0.80;;;;;;;14.34;78.15;101069.44;4994551;28;20038;-43
2023/06/07 10:05:14;;;;;;;3.65;0.90;;;;;;;14.38;77.51;101070.66;4994272;28;20037;-44
2023/06/07 10:07:44;;;;;;;1.65;0.82;;;;;;;14.26;78.51;101072.44;4994271;28;20457;-45
2023/06/07 10:10:12;;;;;;;3.08;1.15;;;;;;;14.18;78.76;101076.25;4994635;28;20088;-44
2023/06/07 10:12:43;;;;;;;1.17;0.77;;;;;;;14.25;78.22;101077.00;4994283;28;20155;-44
2023/06/07 10:15:18;;;;;;;1.25;0.75;;;;;;;14.23;78.23;101078.28;4994241;28;20031;-43
2023/06/07 10:18:08;;;;;;;1.20;0.60;;;;;;;14.31;77.73;101085.22;4994559;28;20030;-44
2023/06/07 10:20:39;;;;;;;2.00;0.70;;;;;;;14.35;77.56;101081.88;4990246;28;20169;-44
2023/06/07 10:23:08;;;;;;;1.20;0.73;;;;;;;14.41;77.55;101072.88;4994494;28;20035;-44
2023/06/07 10:26:04;;;;;;;1.42;0.70;;;;;;;14.46;77.66;101073.03;4993975;28;20026;-47
2023/06/07 10:28:43;;;;;;;;;;;;;;;14.53;77.45;101065.72;4994139;28;20045;-44
2023/06/07 10:31:12;;;;;;;1.63;0.80;;;;;;;14.42;77.48;101063.75;4994680;28;19967;-44
2023/06/07 10:33:40;;;;;;;1.73;0.65;;;;;;;14.46;77.33;101069.53;4994796;28;20030;-43
2023/06/07 10:36:08;;;;;;;2.40;0.80;;;;;;;14.50;76.98;101063.50;4994766;28;20038;-44
2023/06/07 10:38:34;;;;;;;4.03;0.70;;;;;;;14.54;76.64;101074.63;4993668;28;20509;-47
2023/06/07 10:41:03;;;;;;;2.00;0.80;;;;;;;14.55;76.64;101070.03;4993786;28;20116;-43
2023/06/07 10:43:31;;;;;;;1.48;0.70;;;;;;;14.60;76.35;101075.56;4993970;28;20050;-43
2023/06/07 10:46:27;;;;;;;1.35;0.70;;;;;;;14.63;76.29;101075.97;4993811;28;20026;-43
2023/06/07 10:48:55;;;;;;;2.85;1.00;;;;;;;14.58;76.12;101070.44;4993653;28;20031;-44
2023/06/07 10:51:58;;;;;;;1.35;0.65;;;;;;;14.61;76.01;101071.84;4994442;28;20040;-47
2023/06/07 10:54:32;;;;;;;0.93;0.75;;;;;;;14.69;75.55;101076.91;4993844;28;20034;-47
2023/06/07 10:57:05;;;;;;;2.50;1.00;;;;;;;14.60;75.84;101091.75;4993732;28;20109;-48
2023/06/07 10:59:31;;;;;;;1.20;0.90;;;;;;;14.51;76.12;101081.28;4993610;28;20084;-47
2023/06/07 11:02:23;;;;;;;2.58;0.88;;;;;;;14.48;76.33;101080.91;4993939;28;20026;-45
2023/06/07 11:04:57;;;;;;;1.77;0.80;;;;;;;14.33;77.07;101083.16;4993646;28;20542;-43
2023/06/07 11:07:30;;;;;;;1.85;0.88;;;;;;;14.29;77.33;101082.75;4993652;28;20054;-45
2023/06/07 11:10:02;;;;;;;1.13;0.47;;;;;;;14.50;76.43;101089.59;4993461;28;20431;-45
2023/06/07 11:12:40;;;;;;;2.75;0.77;;;;;;;14.39;76.64;101088.44;4993350;28;20096;-44
2023/06/07 11:15:24;;;;;;;3.78;1.20;;;;;;;14.42;76.74;101087.16;4993735;28;20368;-47
2023/06/07 11:18:03;;;;;;;1.67;1.00;;;;;;;14.45;76.57;101097.50;4993516;28;20066;-47
2023/06/07 11:20:44;;;;;;;2.92;0.70;;;;;;;14.58;75.57;101089.28;4993438;28;20035;-47
2023/06/07 11:23:29;;;;;;;1.77;0.60;;;;;;;14.57;75.83;101092.22;4993387;28;20486;-45
2023/06/07 11:26:06;;;;;;;4.43;1.25;;;;;;;14.48;76.76;101097.06;4993202;28;20368;-44
2023/06/07 11:28:34;;;;;;;1.90;0.80;;;;;;;14.39;77.24;101091.16;4993531;28;20031;-46
2023/06/07 11:31:02;;;;;;;3.25;1.25;;;;;;;14.52;76.60;101085.63;4993627;28;20050;-48
2023/06/07 11:33:30;;;;;;;1.98;0.77;;;;;;;14.47;76.91;101084.66;4993283;28;20364;-45
2023/06/07 11:35:57;;;;;;;1.88;1.10;;;;;;;14.57;76.36;101078.75;4993195;28;20480;-45